Aviation Digital Data Service (ADDS)

Output produced by METARs form (0105 UTC 24 May 2022)
found at http://www.aviationweather.gov/metar/data/
 
TAF LPAR 231404Z 2315/2324 34010KT 9999 SCT030 
     TEMPO 2315/2320 35012G25KT BKN018
       
LPBJ 240100Z 32011KT CAVOK 13/09 Q1015
TAF LPBJ 232303Z 2400/2424 32012KT CAVOK 
     TEMPO 2408/2420 33015G25KT
       
LPCS 232000Z 36017KT 9999 FEW016 16/11 Q1015
TAF LPCS 231400Z 2315/2324 34015KT 9999 SCT020 
     TEMPO 2315/2324 34017G27KT
       
LPFR 240100Z 32011KT CAVOK 17/10 Q1013
TAF LPFR 232300Z 2400/2424 34010KT CAVOK 
     BECMG 2411/2414 29015KT 
     TEMPO 2414/2420 29018G30KT 
     BECMG 2420/2423 35012KT
       
LPHR 232300Z VRB03KT 9999 FEW009 SCT045 17/15 Q1026
TAF LPHR 231400Z 2315/2324 14008KT 9999 FEW006 BKN060 
     PROB30 
     TEMPO 2315/2318 VRB05KT 5000 BR BKN005 
     BECMG 2318/2321 VRB05KT FEW008 SCT015
       
LPLA 240100Z /////KT 9999 FEW008 SCT018 16/14 Q1027
TAF LPLA 232303Z 2400/2424 11008KT 9999 FEW015 SCT022 
     PROB30 
     TEMPO 2400/2405 FEW008 BKN014
       
LPPT 240100Z 35007KT 9999 FEW020 14/10 Q1016
TAF LPPT 232300Z 2400/2506 35010KT 9999 FEW020 
     BECMG 2408/2410 34017KT FEW035 
     TEMPO 2410/2421 34020G32KT 
     BECMG 2421/2424 35012KT CAVOK 
     PROB40 
     TEMPO 2500/2506 35015G27KT
       
LPMA 240100Z 01014KT 320V030 9999 FEW016 18/13 Q1020
TAF LPMA 232300Z 2400/2424 01013KT 9999 SCT015 
     TEMPO 2400/2424 01015G27KT 
     PROB40 
     TEMPO 2409/2420 BKN015
       
LPMR 240100Z 35012KT 9999 SCT020 15/10 Q1016
TAF LPMR 232303Z 2400/2424 34012KT 9999 SCT025 
     PROB40 
     TEMPO 2403/2411 7000 -RA BKN018 
     TEMPO 2407/2421 35020G30KT
       
LPMT 240100Z 35009KT 9999 FEW025 15/10 Q1016
TAF LPMT 232303Z 2400/2424 34012KT 9999 FEW030 
     TEMPO 2400/2408 35012G22KT 
     TEMPO 2408/2420 35018G28KT
       
LPOV 232000Z 34013KT 9999 SCT014 16/12 Q1015
TAF LPOV 231703Z 2318/2418 34010KT 9999 FEW015 
     TEMPO 2318/2320 35012G22KT 
     TEMPO 2410/2418 35018G28KT
       
LPPD 240100Z 05006KT 010V080 9999 FEW018 16/13 Q1026
TAF LPPD 232300Z 2400/2424 05007KT 9999 SCT018 
     TEMPO 2400/2418 FEW015 BKN030 
     BECMG 2409/2412 14008KT 
     BECMG 2420/2423 VRB05KT
       
LPPR 240100Z 34005KT CAVOK 12/10 Q1017
TAF LPPR 232300Z 2400/2424 35008KT 9999 FEW020 
     BECMG 2409/2412 33015KT FEW035 
     PROB40 
     TEMPO 2412/2419 33018G30KT 
     BECMG 2419/2422 36008KT CAVOK
       
LPPS 240100Z 01011KT 9999 SCT015 18/12 Q1020
TAF LPPS 232300Z 2400/2506 02013KT 9999 SCT015 
     TEMPO 2407/2418 BKN012
       
LPAZ 240100Z 00000KT 9999 FEW015 16/14 Q1026
TAF LPAZ 232300Z 2400/2506 VRB05KT 9999 SCT018 
     TEMPO 2400/2424 FEW015 BKN030 
     BECMG 2408/2410 07008KT
       
TAF LPST 231404Z 2315/2324 33012KT 9999 FEW015 SCT020 
     TEMPO 2315/2321 34015G25KT 7000 -RADZ FEW012 BKN018 
     PROB30 
     TEMPO 2315/2318 4000 DZ BR SCT006 BKN009